North Las Vegas, NV (89030)

1:49 PM PST on February 09, 2016 (GMT -0800)
Photo Patterns | | Change Station
CLOSE
Current Station
Personal Weather Station
Location: North Las Vegas, NV
Elevation: 1860 ft
Nearby Weather Stations

Elev 1860 ft 36.22 °N, 115.09 °W | Updated 49 seconds ago

Clear
Clear
72.1 °F
Feels Like 75 °F
N
0.0
Wind Variable Wind from NE
Gusts 2.0 mph

Today
High -- | Low -- °F
--% Chance of Precip.
Yesterday
High -- | Low -- °F
Precip. -- in
Pressure 30.34 in
Visibility 10.0 miles
Clouds Clear
Heat Index 75 °F
Dew Point 31 °F
Humidity 22%
Rainfall 0.00 in
Snow Depth Not available.
6:34 AM 5:15 PM
New Moon, 2% visible
METAR KVGT 092053Z 17004KT 10SM CLR 20/M04 A3031 RMK AO2 SLP273 T02001039 58029
Pressure 30.34 in
Visibility 10.0 miles
Clouds Clear
Heat Index 75 °F
Dew Point 31 °F
Humidity 22%
Rainfall 0.00 in
Snow Depth Not available.
6:34 AM 5:15 PM
New Moon, 2% visible
METAR KVGT 092053Z 17004KT 10SM CLR 20/M04 A3031 RMK AO2 SLP273 T02001039 58029

10-Day Weather Forecast

Almanac

Astronomy

Feb. 09, 2016 Rise Set
Actual Time
Civil Twilight
Nautical Twilight
Astronomical Twilight
Moon
Length of Visible Light
Length of Day
Tomorrow will be .
, % of the Moon is Illuminated

Today's Extremes

State Highs State Lows

Community

WunderPhotos

Upload Photos

1,891,710 photos uploaded!

WunderBlog® & News

Nearby

Air Quality

  Air Quality AQ Index Pollutant
Not available.

Snow Depth

Station Depth Elevation

Earthquake Activity

City Distance Mag. Time & Date
Minimum magnitude displayed is 2.5.

Coastal Water Temperatures

Place Temperature

Stations

Nearby Weather Stations

Station Location Temp. Windchill Dew Point Humidity Wind Precip. Elev Updated Type
                   

Watches & Warnings

There are currently no watches in effect.